createdAt,value
2019-04-29T00:01:37.693Z,17.80
2019-04-29T00:04:04.192Z,17.07
2019-04-29T00:06:30.550Z,17.47
2019-04-29T00:08:57.127Z,17.47
2019-04-29T00:11:23.820Z,17.43
2019-04-29T00:13:50.312Z,16.93
2019-04-29T00:16:37.549Z,16.77
2019-04-29T00:19:17.628Z,17.33
2019-04-29T00:21:44.205Z,17.97
2019-04-29T00:24:10.716Z,17.80
2019-04-29T00:26:37.331Z,18.03
2019-04-29T00:29:03.731Z,18.30
2019-04-29T00:31:30.236Z,16.83
2019-04-29T00:33:56.622Z,19.27
2019-04-29T00:36:25.040Z,17.17
2019-04-29T00:39:09.992Z,18.97
2019-04-29T00:41:56.224Z,17.97
2019-04-29T00:44:22.732Z,16.80
2019-04-29T00:46:49.653Z,17.10
2019-04-29T00:49:15.991Z,16.90
2019-04-29T00:51:42.426Z,16.90
2019-04-29T00:54:12.372Z,16.97
2019-04-29T00:56:38.939Z,17.40
2019-04-29T00:59:05.361Z,17.23
2019-04-29T01:01:32.944Z,17.33
2019-04-29T01:03:59.342Z,18.33
2019-04-29T01:06:25.797Z,19.60
2019-04-29T01:08:52.201Z,18.13
2019-04-29T01:11:18.762Z,20.60
2019-04-29T01:13:45.371Z,20.00
2019-04-29T01:16:11.745Z,19.37
2019-04-29T01:18:38.254Z,20.50
2019-04-29T01:21:04.676Z,22.87
2019-04-29T01:23:31.040Z,18.23
2019-04-29T01:26:02.373Z,21.90
2019-04-29T01:28:32.590Z,20.00
2019-04-29T01:31:07.027Z,22.47
2019-04-29T01:33:33.535Z,21.37
2019-04-29T01:36:17.109Z,26.13
2019-04-29T01:38:43.627Z,23.13
2019-04-29T01:41:27.237Z,21.93
2019-04-29T01:44:10.342Z,23.00
2019-04-29T01:46:36.736Z,23.07
2019-04-29T01:49:03.192Z,22.80
2019-04-29T01:51:29.583Z,22.40
2019-04-29T01:53:56.047Z,24.07
2019-04-29T01:56:22.650Z,22.97
2019-04-29T01:58:48.983Z,23.33
2019-04-29T02:01:15.427Z,23.33
2019-04-29T02:03:42.268Z,23.93
2019-04-29T02:06:08.646Z,23.57
2019-04-29T02:08:36.037Z,24.77
2019-04-29T02:11:02.610Z,24.53
2019-04-29T02:13:29.091Z,26.17
2019-04-29T02:15:55.421Z,24.67
2019-04-29T02:18:21.814Z,25.53
2019-04-29T02:20:48.445Z,26.93
2019-04-29T02:23:16.848Z,25.47
2019-04-29T02:25:45.148Z,25.53
2019-04-29T02:28:11.569Z,25.30
2019-04-29T02:30:40.071Z,26.73
2019-04-29T02:33:06.503Z,27.83
2019-04-29T02:35:32.840Z,26.53
2019-04-29T02:37:59.685Z,26.47
2019-04-29T02:40:33.721Z,25.50
2019-04-29T02:43:02.069Z,27.70
2019-04-29T02:45:30.319Z,26.83
2019-04-29T02:47:56.869Z,27.07
2019-04-29T02:50:23.305Z,27.77
2019-04-29T02:52:49.705Z,30.83
2019-04-29T02:55:18.700Z,27.47
2019-04-29T02:57:50.057Z,29.70
2019-04-29T03:00:27.443Z,29.83
2019-04-29T03:02:58.306Z,29.27
2019-04-29T03:05:32.436Z,29.90
2019-04-29T03:07:58.916Z,30.33
2019-04-29T03:10:25.241Z,30.57
2019-04-29T03:12:51.665Z,31.00
2019-04-29T03:15:27.591Z,32.07
2019-04-29T03:17:53.990Z,31.80
2019-04-29T03:20:32.440Z,30.07
2019-04-29T03:23:07.671Z,31.57
2019-04-29T03:25:34.052Z,31.87
2019-04-29T03:28:00.461Z,32.50
2019-04-29T03:30:27.109Z,33.27
2019-04-29T03:32:53.561Z,34.50
2019-04-29T03:35:20.052Z,33.43
2019-04-29T03:37:46.508Z,33.67
2019-04-29T03:40:13.940Z,34.43
2019-04-29T03:42:40.356Z,34.90
2019-04-29T03:45:06.976Z,34.20
2019-04-29T03:47:33.512Z,38.20
2019-04-29T03:49:59.915Z,34.93
2019-04-29T03:52:26.264Z,38.10
2019-04-29T03:54:52.768Z,37.97
2019-04-29T03:57:19.747Z,36.77
2019-04-29T03:59:46.192Z,36.27
2019-04-29T04:02:17.184Z,40.27
2019-04-29T04:04:45.493Z,39.97
2019-04-29T04:07:28.901Z,41.07
2019-04-29T04:09:55.314Z,42.83
2019-04-29T04:12:21.696Z,42.57
2019-04-29T04:14:48.029Z,40.17
2019-04-29T04:17:20.577Z,43.10
2019-04-29T04:19:48.052Z,44.07
2019-04-29T04:22:14.492Z,43.37
2019-04-29T04:24:40.890Z,45.80
2019-04-29T04:27:07.345Z,44.40
2019-04-29T04:29:33.847Z,43.97
2019-04-29T04:32:00.352Z,39.00
2019-04-29T04:34:26.839Z,38.57
2019-04-29T04:36:53.222Z,38.27
2019-04-29T04:39:19.624Z,39.67
2019-04-29T04:41:46.180Z,37.60
2019-04-29T04:44:12.623Z,35.93
2019-04-29T04:46:39.041Z,39.03
2019-04-29T04:49:05.486Z,37.70
2019-04-29T04:51:31.952Z,41.33
2019-04-29T04:53:58.365Z,41.40
2019-04-29T04:56:24.950Z,38.07
2019-04-29T04:58:51.355Z,37.20
2019-04-29T05:01:17.678Z,40.50
2019-04-29T05:03:44.135Z,55.70
2019-04-29T05:06:10.526Z,41.87
2019-04-29T05:08:36.986Z,37.80
2019-04-29T05:11:03.526Z,39.90
2019-04-29T05:13:29.970Z,34.40
2019-04-29T05:15:56.392Z,35.63
2019-04-29T05:18:22.877Z,34.90
2019-04-29T05:20:49.357Z,31.03
2019-04-29T05:23:16.094Z,36.10
2019-04-29T05:25:42.612Z,36.23
2019-04-29T05:28:08.950Z,33.23
2019-04-29T05:30:35.389Z,33.50
2019-04-29T05:33:01.857Z,33.53
2019-04-29T05:35:35.993Z,34.33
2019-04-29T05:38:04.271Z,30.27
2019-04-29T05:40:44.684Z,32.37
2019-04-29T05:43:13.016Z,31.47
2019-04-29T05:45:56.551Z,30.40
2019-04-29T05:48:22.969Z,30.70
2019-04-29T05:50:53.840Z,32.50
2019-04-29T05:53:25.413Z,28.70
2019-04-29T05:55:52.642Z,29.30
2019-04-29T05:58:19.262Z,28.00
2019-04-29T06:00:56.681Z,27.23
2019-04-29T06:03:23.153Z,27.00
2019-04-29T06:05:49.528Z,27.50
2019-04-29T06:08:16.062Z,24.23
2019-04-29T06:10:42.463Z,24.77
2019-04-29T06:13:08.992Z,24.47
2019-04-29T06:15:35.399Z,26.90
2019-04-29T06:18:01.706Z,24.80
2019-04-29T06:20:28.133Z,23.03
2019-04-29T06:22:54.501Z,24.03
2019-04-29T06:25:20.899Z,21.03
2019-04-29T06:27:48.602Z,21.13
2019-04-29T06:30:15.221Z,22.27
2019-04-29T06:32:41.678Z,19.77
2019-04-29T06:35:10.569Z,20.67
2019-04-29T06:37:36.472Z,20.87
2019-04-29T06:40:06.150Z,20.97
2019-04-29T06:42:33.565Z,20.67
2019-04-29T06:45:00.010Z,20.20
2019-04-29T06:47:27.622Z,19.87
2019-04-29T06:49:53.997Z,20.53
2019-04-29T06:52:20.379Z,19.57
2019-04-29T06:54:46.771Z,20.40
2019-04-29T06:57:13.108Z,17.67
2019-04-29T06:59:42.971Z,18.87
2019-04-29T07:02:09.397Z,18.93
2019-04-29T07:04:39.584Z,17.33
2019-04-29T07:07:04.807Z,18.20
2019-04-29T07:09:31.285Z,17.07
2019-04-29T07:12:01.366Z,17.33
2019-04-29T07:14:28.313Z,16.07
2019-04-29T07:16:54.136Z,16.90
2019-04-29T07:19:22.232Z,15.47
2019-04-29T07:21:51.381Z,15.20
2019-04-29T07:24:20.051Z,16.27
2019-04-29T07:26:45.166Z,14.83
2019-04-29T07:29:11.695Z,15.57
2019-04-29T07:31:38.055Z,16.13
2019-04-29T07:34:04.513Z,15.33
2019-04-29T07:36:30.904Z,13.40
2019-04-29T07:38:57.660Z,14.55
2019-04-29T07:41:24.051Z,13.60
2019-04-29T07:43:50.580Z,13.38
2019-04-29T07:46:55.713Z,13.58
2019-04-29T07:49:05.909Z,13.70
2019-04-29T07:51:34.786Z,13.80
2019-04-29T07:54:00.596Z,13.25
2019-04-29T07:56:26.976Z,13.03
2019-04-29T07:58:53.517Z,13.08
2019-04-29T08:01:24.502Z,13.05
2019-04-29T08:03:48.419Z,13.22
2019-04-29T08:06:15.158Z,13.10
2019-04-29T08:08:53.823Z,12.18
2019-04-29T08:11:10.193Z,11.35
2019-04-29T08:13:37.776Z,12.65
2019-04-29T08:16:04.147Z,11.80
2019-04-29T08:18:30.565Z,11.95
2019-04-29T08:20:56.897Z,11.85
2019-04-29T08:23:23.420Z,10.68
2019-04-29T08:25:51.058Z,11.55
2019-04-29T08:28:18.942Z,10.70
2019-04-29T08:30:45.796Z,10.85
2019-04-29T08:33:13.259Z,11.20
2019-04-29T08:35:39.945Z,9.70
2019-04-29T08:38:06.388Z,10.03
2019-04-29T08:40:34.334Z,10.40
2019-04-29T08:43:06.168Z,10.35
2019-04-29T08:45:43.721Z,11.03
2019-04-29T08:48:10.902Z,11.20
2019-04-29T08:50:37.421Z,10.70
2019-04-29T08:53:03.879Z,8.85
2019-04-29T08:55:31.357Z,9.45
2019-04-29T08:57:58.465Z,9.80
2019-04-29T09:00:25.303Z,8.38
2019-04-29T09:02:51.964Z,8.88
2019-04-29T09:05:18.947Z,8.68
2019-04-29T09:07:45.373Z,8.38
2019-04-29T09:10:13.395Z,8.90
2019-04-29T09:12:39.768Z,9.23
2019-04-29T09:15:07.347Z,9.50
2019-04-29T09:17:33.717Z,9.13
2019-04-29T09:20:00.051Z,9.88
2019-04-29T09:22:28.326Z,9.35
2019-04-29T09:25:11.958Z,8.63
2019-04-29T09:27:40.689Z,9.23
2019-04-29T09:30:09.734Z,8.95
2019-04-29T09:32:38.126Z,7.62
2019-04-29T09:35:04.803Z,8.18
2019-04-29T09:37:32.532Z,8.03
2019-04-29T09:39:59.043Z,9.00
2019-04-29T09:42:45.498Z,8.75
2019-04-29T09:45:14.710Z,7.58
2019-04-29T09:47:42.619Z,7.83
2019-04-29T09:50:09.234Z,8.38
2019-04-29T09:52:35.675Z,8.18
2019-04-29T09:55:03.988Z,8.43
2019-04-29T09:57:31.826Z,8.10
2019-04-29T10:00:09.396Z,7.78
2019-04-29T10:02:42.337Z,7.62
2019-04-29T10:05:13.842Z,8.85
2019-04-29T10:07:40.357Z,8.40
2019-04-29T10:10:07.774Z,8.68
2019-04-29T10:12:34.275Z,8.53
2019-04-29T10:15:00.719Z,7.72
2019-04-29T10:17:28.960Z,8.25
2019-04-29T10:20:07.989Z,9.13
2019-04-29T10:22:34.311Z,8.48
2019-04-29T10:25:02.303Z,7.25
2019-04-29T10:27:28.714Z,8.80
2019-04-29T10:29:57.163Z,7.28
2019-04-29T10:32:23.844Z,8.10
2019-04-29T10:34:50.166Z,8.20
2019-04-29T10:37:16.545Z,7.62
2019-04-29T10:39:47.845Z,7.45
2019-04-29T10:42:16.151Z,8.98
2019-04-29T10:44:52.988Z,8.25
2019-04-29T10:47:26.858Z,9.35
2019-04-29T10:49:57.916Z,7.80
2019-04-29T10:52:24.619Z,7.97
2019-04-29T10:54:55.167Z,7.83
2019-04-29T10:57:22.553Z,8.73
2019-04-29T10:59:50.928Z,8.60
2019-04-29T11:02:20.368Z,7.80
2019-04-29T11:04:51.680Z,7.08
2019-04-29T11:07:26.546Z,7.90
2019-04-29T11:09:52.564Z,7.83
2019-04-29T11:12:19.148Z,9.05
2019-04-29T11:14:45.726Z,7.37
2019-04-29T11:17:16.481Z,7.40
2019-04-29T11:19:41.715Z,8.25
2019-04-29T11:22:08.552Z,7.85
2019-04-29T11:24:42.663Z,7.17
2019-04-29T11:27:12.343Z,8.30
2019-04-29T11:29:39.151Z,7.95
2019-04-29T11:32:07.860Z,7.75
2019-04-29T11:34:36.155Z,8.68
2019-04-29T11:37:02.859Z,8.10
2019-04-29T11:39:30.362Z,7.85
2019-04-29T11:41:59.791Z,7.67
2019-04-29T11:44:26.601Z,7.65
2019-04-29T11:46:53.463Z,8.03
2019-04-29T11:49:21.810Z,7.87
2019-04-29T11:52:08.397Z,8.38
2019-04-29T11:54:18.214Z,8.88
2019-04-29T11:56:45.023Z,8.43
2019-04-29T11:59:25.268Z,8.13
2019-04-29T12:01:59.756Z,8.88
2019-04-29T12:04:28.615Z,7.58
2019-04-29T12:06:58.117Z,7.53
2019-04-29T12:09:25.395Z,7.83
2019-04-29T12:11:53.483Z,8.75
2019-04-29T12:14:24.619Z,9.53
2019-04-29T12:16:55.996Z,8.65
2019-04-29T12:19:27.381Z,9.35
2019-04-29T12:21:55.341Z,8.28
2019-04-29T12:24:21.696Z,8.03
2019-04-29T12:26:48.158Z,8.25
2019-04-29T12:29:18.283Z,8.13
2019-04-29T12:31:56.634Z,8.13
2019-04-29T12:34:41.525Z,7.40
2019-04-29T12:37:25.664Z,7.65
2019-04-29T12:39:59.643Z,8.58
2019-04-29T12:42:30.111Z,9.10
2019-04-29T12:45:00.950Z,9.80
2019-04-29T12:47:32.207Z,8.85
2019-04-29T12:49:58.766Z,8.40
2019-04-29T12:52:25.409Z,8.58
2019-04-29T12:54:51.781Z,8.40
2019-04-29T12:57:18.916Z,8.58
2019-04-29T12:59:46.373Z,8.75
2019-04-29T13:02:19.889Z,9.13
2019-04-29T13:04:49.819Z,9.15
2019-04-29T13:07:26.677Z,8.73
2019-04-29T13:10:09.872Z,8.68
2019-04-29T13:12:39.807Z,12.15
2019-04-29T13:15:08.042Z,9.50
2019-04-29T13:17:46.426Z,8.60
2019-04-29T13:20:13.176Z,8.85
2019-04-29T13:22:39.762Z,8.25
2019-04-29T13:25:06.780Z,8.55
2019-04-29T13:27:33.321Z,8.43
2019-04-29T13:29:59.679Z,8.33
2019-04-29T13:32:29.767Z,9.63
2019-04-29T13:34:56.234Z,9.68
2019-04-29T13:37:23.899Z,8.78
2019-04-29T13:39:55.278Z,8.53
2019-04-29T13:42:18.635Z,8.90
2019-04-29T13:45:05.183Z,9.90
2019-04-29T13:47:17.186Z,8.55
2019-04-29T13:49:49.060Z,9.15
2019-04-29T13:52:14.904Z,8.88
2019-04-29T13:54:42.861Z,9.30
2019-04-29T13:57:15.606Z,8.40
2019-04-29T13:59:50.363Z,7.35
2019-04-29T14:02:31.099Z,8.85
2019-04-29T14:05:02.203Z,8.70
2019-04-29T14:07:29.905Z,7.78
2019-04-29T14:09:56.401Z,8.20
2019-04-29T14:12:47.716Z,9.70
2019-04-29T14:14:53.924Z,9.65
2019-04-29T14:17:26.641Z,8.45
2019-04-29T14:19:47.485Z,8.53
2019-04-29T14:22:21.904Z,8.50
2019-04-29T14:24:42.210Z,9.03
2019-04-29T14:27:08.525Z,10.58
2019-04-29T14:29:36.029Z,8.90
2019-04-29T14:32:02.453Z,8.55
2019-04-29T14:34:36.996Z,8.08
2019-04-29T14:37:19.660Z,8.93
2019-04-29T14:39:37.312Z,8.75
2019-04-29T14:42:02.449Z,8.95
2019-04-29T14:44:31.453Z,8.70
2019-04-29T14:47:02.577Z,9.23
2019-04-29T14:49:30.810Z,8.93
2019-04-29T14:51:57.229Z,8.53
2019-04-29T14:54:23.656Z,9.20
2019-04-29T14:56:50.124Z,9.53
2019-04-29T14:59:16.520Z,9.07
2019-04-29T15:01:44.891Z,9.37
2019-04-29T15:04:18.622Z,10.87
2019-04-29T15:06:41.245Z,8.90
2019-04-29T15:09:16.577Z,9.77
2019-04-29T15:11:54.021Z,10.27
2019-04-29T15:14:26.054Z,9.07
2019-04-29T15:17:01.627Z,9.80
2019-04-29T15:19:39.066Z,9.20
2019-04-29T15:22:06.827Z,9.23
2019-04-29T15:24:34.140Z,9.90
2019-04-29T15:27:00.660Z,9.60
2019-04-29T15:29:27.010Z,9.80
2019-04-29T15:31:54.440Z,9.30
2019-04-29T15:34:20.879Z,10.47
2019-04-29T15:36:47.196Z,9.17
2019-04-29T15:39:13.796Z,8.80
2019-04-29T15:41:40.385Z,8.80
2019-04-29T15:44:08.446Z,9.60
2019-04-29T15:46:46.233Z,9.77
2019-04-29T15:49:03.347Z,8.40
2019-04-29T15:51:29.685Z,8.30
2019-04-29T15:53:56.116Z,8.17
2019-04-29T15:56:28.737Z,7.57
2019-04-29T15:58:50.844Z,9.17
2019-04-29T16:01:22.153Z,10.47
2019-04-29T16:03:45.573Z,7.50
2019-04-29T16:06:21.484Z,7.50
2019-04-29T16:08:52.766Z,8.77
2019-04-29T16:11:33.385Z,8.13
2019-04-29T16:14:09.072Z,7.87
2019-04-29T16:16:26.408Z,9.90
2019-04-29T16:18:52.928Z,7.63
2019-04-29T16:21:20.248Z,7.20
2019-04-29T16:23:46.682Z,7.20
2019-04-29T16:26:13.154Z,7.37
2019-04-29T16:28:40.186Z,7.03
2019-04-29T16:31:12.442Z,7.70
2019-04-29T16:33:35.217Z,8.03
2019-04-29T16:36:04.874Z,8.23
2019-04-29T16:38:30.252Z,8.47
2019-04-29T16:41:01.435Z,6.97
2019-04-29T16:43:29.935Z,7.30
2019-04-29T16:45:58.813Z,8.67
2019-04-29T16:48:25.503Z,7.93
2019-04-29T16:50:51.919Z,7.27
2019-04-29T16:53:19.526Z,6.50
2019-04-29T16:55:47.010Z,8.47
2019-04-29T16:58:18.229Z,6.87
2019-04-29T17:00:46.847Z,7.90
2019-04-29T17:03:11.848Z,6.87
2019-04-29T17:05:38.234Z,7.47
2019-04-29T17:08:09.389Z,6.93
2019-04-29T17:10:39.920Z,8.37
2019-04-29T17:13:09.153Z,7.13
2019-04-29T17:15:34.819Z,6.93
2019-04-29T17:18:02.000Z,7.23
2019-04-29T17:20:28.583Z,6.73
2019-04-29T17:22:55.249Z,6.97
2019-04-29T17:25:22.502Z,6.13
2019-04-29T17:27:50.864Z,7.00
2019-04-29T17:30:23.507Z,8.67
2019-04-29T17:33:26.823Z,7.67
2019-04-29T17:35:49.355Z,10.80
2019-04-29T17:38:15.785Z,7.47
2019-04-29T17:40:50.916Z,7.17
2019-04-29T17:43:29.550Z,8.37
2019-04-29T17:45:57.999Z,7.63
2019-04-29T17:48:26.407Z,8.20
2019-04-29T17:50:58.185Z,9.33
2019-04-29T17:53:26.778Z,7.30
2019-04-29T17:56:01.064Z,6.13
2019-04-29T17:58:38.524Z,7.47
2019-04-29T18:01:24.305Z,8.43
2019-04-29T18:03:56.404Z,8.10
2019-04-29T18:06:28.098Z,8.37
2019-04-29T18:08:57.714Z,6.40
2019-04-29T18:11:25.069Z,10.77
2019-04-29T18:13:52.537Z,6.03
2019-04-29T18:16:25.896Z,5.97
2019-04-29T18:18:57.623Z,6.40
2019-04-29T18:21:43.278Z,7.17
2019-04-29T18:24:34.155Z,5.17
2019-04-29T18:27:05.454Z,5.70
2019-04-29T18:29:35.821Z,4.67
2019-04-29T18:32:04.395Z,6.10
2019-04-29T18:34:29.314Z,5.60
2019-04-29T18:37:00.480Z,7.30
2019-04-29T18:39:31.483Z,6.53
2019-04-29T18:41:58.764Z,6.13
2019-04-29T18:44:25.899Z,5.63
2019-04-29T18:46:53.871Z,5.87
2019-04-29T18:49:20.472Z,5.70
2019-04-29T18:51:46.997Z,6.37
2019-04-29T18:54:13.538Z,6.10
2019-04-29T18:56:40.003Z,5.70
2019-04-29T18:59:06.561Z,6.07
2019-04-29T19:01:34.905Z,5.70
2019-04-29T19:04:04.766Z,5.67
2019-04-29T19:06:31.805Z,6.17
2019-04-29T19:09:01.733Z,5.93
2019-04-29T19:11:32.483Z,6.00
2019-04-29T19:13:54.916Z,5.57
2019-04-29T19:16:22.055Z,5.70
2019-04-29T19:18:52.013Z,6.13
2019-04-29T19:21:17.945Z,6.00
2019-04-29T19:23:45.853Z,6.43
2019-04-29T19:26:12.997Z,5.97
2019-04-29T19:28:39.630Z,6.00
2019-04-29T19:31:09.376Z,5.53
2019-04-29T19:33:37.930Z,6.10
2019-04-29T19:36:06.013Z,5.07
2019-04-29T19:38:31.386Z,5.80
2019-04-29T19:40:57.850Z,5.67
2019-04-29T19:43:25.889Z,5.33
2019-04-29T19:45:52.437Z,6.00
2019-04-29T19:48:22.407Z,5.00
2019-04-29T19:50:51.651Z,6.50
2019-04-29T19:53:16.753Z,5.47
2019-04-29T19:55:45.587Z,5.33
2019-04-29T19:58:12.929Z,5.93
2019-04-29T20:00:40.212Z,5.43
2019-04-29T20:03:20.651Z,7.40
2019-04-29T20:05:40.205Z,7.20
2019-04-29T20:08:07.723Z,6.30
2019-04-29T20:10:44.298Z,6.97
2019-04-29T20:13:03.324Z,5.87
2019-04-29T20:15:33.957Z,6.40
2019-04-29T20:18:05.439Z,6.97
2019-04-29T20:21:28.810Z,7.90
2019-04-29T20:23:02.628Z,6.70
2019-04-29T20:25:33.598Z,5.67
2019-04-29T20:28:05.516Z,8.87
2019-04-29T20:30:26.673Z,5.67
2019-04-29T20:32:55.997Z,6.63
2019-04-29T20:35:22.579Z,6.20
2019-04-29T20:37:55.701Z,7.10
2019-04-29T20:40:17.509Z,6.67
2019-04-29T20:42:50.857Z,7.03
2019-04-29T20:45:20.115Z,6.33
2019-04-29T20:47:45.858Z,6.03
2019-04-29T20:50:13.996Z,7.87
2019-04-29T20:52:45.797Z,5.30
2019-04-29T20:55:12.862Z,6.10
2019-04-29T20:57:41.149Z,5.47
2019-04-29T21:00:08.703Z,7.17
2019-04-29T21:02:37.412Z,6.17
2019-04-29T21:05:23.206Z,5.50
2019-04-29T21:07:45.577Z,5.20
2019-04-29T21:10:12.654Z,5.97
2019-04-29T21:12:41.412Z,6.60
2019-04-29T21:15:16.329Z,5.73
2019-04-29T21:17:43.048Z,5.27
2019-04-29T21:20:09.521Z,5.93
2019-04-29T21:22:35.913Z,6.53
2019-04-29T21:25:04.483Z,6.97
2019-04-29T21:27:30.849Z,5.63
2019-04-29T21:29:57.234Z,5.10
2019-04-29T21:32:25.619Z,5.97
2019-04-29T21:34:55.602Z,6.60
2019-04-29T21:37:29.778Z,7.23
2019-04-29T21:40:00.883Z,13.17
2019-04-29T21:42:35.690Z,5.00
2019-04-29T21:45:03.592Z,4.97
2019-04-29T21:47:41.769Z,5.30
2019-04-29T21:49:57.828Z,5.47
2019-04-29T21:52:25.377Z,4.50
2019-04-29T21:54:51.985Z,4.80
2019-04-29T21:57:23.710Z,6.10
2019-04-29T21:59:48.624Z,5.57
2019-04-29T22:02:15.331Z,5.67
2019-04-29T22:04:45.024Z,6.10
2019-04-29T22:07:12.251Z,8.17
2019-04-29T22:09:40.566Z,7.07
2019-04-29T22:12:07.720Z,5.17
2019-04-29T22:14:34.891Z,5.40
2019-04-29T22:17:01.444Z,4.93
2019-04-29T22:19:28.215Z,5.63
2019-04-29T22:21:57.846Z,5.03
2019-04-29T22:24:28.558Z,7.10
2019-04-29T22:26:58.163Z,6.93
2019-04-29T22:29:24.682Z,5.23
2019-04-29T22:31:51.651Z,5.67
2019-04-29T22:34:19.306Z,6.20
2019-04-29T22:36:48.192Z,6.90
2019-04-29T22:39:15.805Z,9.90
2019-04-29T22:41:54.178Z,6.43
2019-04-29T22:44:21.876Z,7.10
2019-04-29T22:46:49.128Z,6.10
2019-04-29T22:49:19.826Z,6.07
2019-04-29T22:51:45.423Z,11.90
2019-04-29T22:54:11.967Z,7.63
2019-04-29T22:56:40.550Z,9.03
2019-04-29T22:59:06.535Z,6.63
2019-04-29T23:01:32.888Z,6.43
2019-04-29T23:03:59.295Z,6.37
2019-04-29T23:06:25.941Z,7.33
2019-04-29T23:08:52.572Z,6.80
2019-04-29T23:11:18.902Z,6.10
2019-04-29T23:13:46.169Z,7.47
2019-04-29T23:16:13.464Z,5.70
2019-04-29T23:18:44.064Z,5.93
2019-04-29T23:21:28.091Z,6.63
2019-04-29T23:24:17.320Z,6.17
2019-04-29T23:26:42.791Z,6.00
2019-04-29T23:29:09.345Z,6.23
2019-04-29T23:31:36.993Z,6.43
2019-04-29T23:34:05.626Z,6.70
2019-04-29T23:36:31.730Z,7.77
2019-04-29T23:38:58.068Z,9.80
2019-04-29T23:41:27.690Z,7.10
2019-04-29T23:43:52.603Z,8.27
2019-04-29T23:46:19.033Z,6.33
2019-04-29T23:48:46.759Z,6.67
2019-04-29T23:51:15.370Z,6.03
2019-04-29T23:53:41.934Z,6.77
2019-04-29T23:56:09.759Z,7.97
2019-04-29T23:58:41.099Z,8.93
